Terminal Aerodrome Forecast
Issued by NWS

Current Version | Previous Version | Text Only | Print | Product List | Glossary On
Versions: 1 2 3 4 5 6 7 8 9 10 11 12 13
000
FTUS41 KPBZ 041459 AAA
TAFZZV
TAF AMD
KZZV 041459Z 0415/0512 22012G19KT P6SM BKN250
     FM050200 20007KT P6SM BKN090
     FM050900 21008KT P6SM -SHRA OVC040=

USA.gov is the U.S. government's official web portal to all federal, state and local government web resources and services.